Snav Antares — IINQ — position and weather

sailwx.info

Track history (hours):
 
Tides and Currents Weather Stations Pressure Air Temp Water Temp Dewpoint Dewpoint Depression Visibility Wind Speed Wind Dir Waves Ship Positions

Snav Antares

Last reported at 2017-Nov-19 18:49 UTC. Time now 2017-Nov-22 22:16 UTC.
Position N 40°37' E 014°17'.

Length 42 m; draft 1.6 m.

Type: Passenger vessel. MMSI: 247058900.

Date/timePositionNaut miles runAvg speedWind from/ knotsBaromVisibWave heightAir tempDewpointWater temp
2017-Nov-19 18:49N 40°37' E 014°17'6 5.1
2017-Nov-19 17:38N 40°43' E 014°16'324.9
2017-Nov-19 17:30N 40°40' E 014°15'4 2.8
2017-Nov-19 16:10N 40°37' E 014°18'6 2.0
2017-Nov-19 13:11N 40°43' E 014°17'524.6
2017-Nov-19 13:00N 40°39' E 014°16'2 2.9
2017-Nov-19 12:15N 40°37' E 014°15'6 1.7
2017-Nov-19 08:37N 40°43' E 014°16'326.0
2017-Nov-19 08:29N 40°40' E 014°16'3 3.6
2017-Nov-19 07:44N 40°37' E 014°16'0 0.0
2017-Nov-18 18:50N 40°37' E 014°16'6 4.5
2017-Nov-18 17:34N 40°43' E 014°17'226.5
2017-Nov-18 17:30N 40°41' E 014°16'4 2.8
2017-Nov-18 16:06N 40°37' E 014°16'6 1.9
2017-Nov-18 13:07N 40°43' E 014°16'326.2
2017-Nov-18 13:00N 40°40' E 014°16'3 3.4
2017-Nov-18 12:15N 40°37' E 014°16'5 1.5
2017-Nov-18 08:35N 40°43' E 014°17'225.9
2017-Nov-18 08:30N 40°40' E 014°16'3 4.1
2017-Nov-18 07:40N 40°37' E 014°15'0 0.0
2017-Nov-17 18:51N 40°37' E 014°15'6 4.8
2017-Nov-17 17:37N 40°43' E 014°16'324.1
2017-Nov-17 17:30N 40°40' E 014°16'3 1.9
2017-Nov-17 16:10N 40°37' E 014°16'7 2.4
2017-Nov-17 13:10N 40°45' E 014°16'425.2
2017-Nov-17 13:00N 40°40' E 014°15'3 4.3
2017-Nov-17 12:17N 40°37' E 014°15'5 1.5
2017-Nov-17 08:35N 40°43' E 014°16'226.6
2017-Nov-17 08:30N 40°41' E 014°16'3 4.6
2017-Nov-17 07:45N 40°37' E 014°15'6 0.4
2017-Nov-16 17:36N 40°43' E 014°16'225.2
2017-Nov-16 17:30N 40°41' E 014°16'2 0.5
2017-Nov-16 13:08N 40°43' E 014°16'324.9
2017-Nov-16 13:00N 40°39' E 014°15'5 1.1
2017-Nov-16 08:38N 40°44' E 014°16'425.2
2017-Nov-16 08:30N 40°40' E 014°15'3 4.0
2017-Nov-16 07:44N 40°37' E 014°16'0 0.0
2017-Nov-15 18:49N 40°37' E 014°16'5 4.4
2017-Nov-15 17:35N 40°43' E 014°16'225.5
2017-Nov-15 17:30N 40°41' E 014°16'4 2.6
2017-Nov-15 16:08N 40°37' E 014°15'7 2.3
2017-Nov-15 13:07N 40°44' E 014°16'326.6
2017-Nov-15 13:00N 40°41' E 014°16'4 4.8
2017-Nov-15 12:16N 40°37' E 014°16'6 1.5
2017-Nov-15 08:35N 40°43' E 014°17'226.8
2017-Nov-15 08:30N 40°41' E 014°17'3 3.9
2017-Nov-15 07:41N 40°38' E 014°17'5 0.4
2017-Nov-14 17:34N 40°43' E 014°17'226.4
2017-Nov-14 17:31N 40°41' E 014°17'3 0.6
2017-Nov-14 13:09N 40°44' E 014°17'425.5
2017-Nov-14 13:00N 40°40' E 014°17'2 3.1
2017-Nov-14 12:13N 40°38' E 014°19'5 1.3
2017-Nov-14 08:39N 40°43' E 014°18'424.1
2017-Nov-14 08:30N 40°39' E 014°17'2 2.0
2017-Nov-14 07:42N 40°38' E 014°18'6 0.1
2017-Nov-12 08:37N 40°44' E 014°16'427.3
2017-Nov-12 08:29N 40°40' E 014°16'3 3.5
2017-Nov-12 07:41N 40°38' E 014°16'7 5.1
2017-Nov-12 06:19N 40°45' E 014°16'7 0.6
2017-Nov-11 18:47N 40°37' E 014°15'5 4.1
2017-Nov-11 17:32N 40°42' E 014°16'125.8
2017-Nov-11 17:30N 40°42' E 014°16'4 3.0
2017-Nov-11 16:03N 40°37' E 014°16'127.5
2017-Nov-11 16:00N 40°39' E 014°16'6 2.1
2017-Nov-11 13:09N 40°45' E 014°17'425.6
2017-Nov-11 13:00N 40°41' E 014°16'3 4.3
2017-Nov-11 12:16N 40°38' E 014°16'7 1.9
2017-Nov-11 08:40N 40°44' E 014°16'425.0
2017-Nov-11 08:30N 40°40' E 014°16'2 2.8
2017-Nov-11 07:39N 40°38' E 014°17'1 0.1
2017-Nov-10 18:48N 40°38' E 014°18'6 5.5
2017-Nov-10 17:39N 40°44' E 014°17'425.3
2017-Nov-10 17:30N 40°41' E 014°16'1 0.8
2017-Nov-10 16:04N 40°40' E 014°17'2 0.8
2017-Nov-10 13:03N 40°42' E 014°17'127.6
2017-Nov-10 13:00N 40°41' E 014°17'3 4.4
2017-Nov-10 12:14N 40°37' E 014°16'5 1.5
2017-Nov-10 08:40N 40°43' E 014°17'316.1
2017-Nov-10 08:30N 40°40' E 014°17'3 0.2
2017-Nov-09 18:50N 40°37' E 014°16'  
Track history (hours):
 
Tides and Currents Weather Stations Pressure Air Temp Water Temp Dewpoint Dewpoint Depression Visibility Wind Speed Wind Dir Waves Ship Positions

Snav Antares

Last reported at 2017-Nov-19 18:49 UTC. Time now 2017-Nov-22 22:16 UTC.
Position N 40°37' E 014°17'.

Length 42 m; draft 1.6 m.

Type: Passenger vessel. MMSI: 247058900.

Date/timePositionNaut miles runAvg speedWind from/ knotsBaromVisibWave heightAir tempDewpointWater temp
2017-Nov-19 18:49N 40°37' E 014°17'6 5.1
2017-Nov-19 17:38N 40°43' E 014°16'324.9
2017-Nov-19 17:30N 40°40' E 014°15'4 2.8
2017-Nov-19 16:10N 40°37' E 014°18'6 2.0
2017-Nov-19 13:11N 40°43' E 014°17'524.6
2017-Nov-19 13:00N 40°39' E 014°16'2 2.9
2017-Nov-19 12:15N 40°37' E 014°15'6 1.7
2017-Nov-19 08:37N 40°43' E 014°16'326.0
2017-Nov-19 08:29N 40°40' E 014°16'3 3.6
2017-Nov-19 07:44N 40°37' E 014°16'0 0.0
2017-Nov-18 18:50N 40°37' E 014°16'6 4.5
2017-Nov-18 17:34N 40°43' E 014°17'226.5
2017-Nov-18 17:30N 40°41' E 014°16'4 2.8
2017-Nov-18 16:06N 40°37' E 014°16'6 1.9
2017-Nov-18 13:07N 40°43' E 014°16'326.2
2017-Nov-18 13:00N 40°40' E 014°16'3 3.4
2017-Nov-18 12:15N 40°37' E 014°16'5 1.5
2017-Nov-18 08:35N 40°43' E 014°17'225.9
2017-Nov-18 08:30N 40°40' E 014°16'3 4.1
2017-Nov-18 07:40N 40°37' E 014°15'0 0.0
2017-Nov-17 18:51N 40°37' E 014°15'6 4.8
2017-Nov-17 17:37N 40°43' E 014°16'324.1
2017-Nov-17 17:30N 40°40' E 014°16'3 1.9
2017-Nov-17 16:10N 40°37' E 014°16'7 2.4
2017-Nov-17 13:10N 40°45' E 014°16'425.2
2017-Nov-17 13:00N 40°40' E 014°15'3 4.3
2017-Nov-17 12:17N 40°37' E 014°15'5 1.5
2017-Nov-17 08:35N 40°43' E 014°16'226.6
2017-Nov-17 08:30N 40°41' E 014°16'3 4.6
2017-Nov-17 07:45N 40°37' E 014°15'6 0.4
2017-Nov-16 17:36N 40°43' E 014°16'225.2
2017-Nov-16 17:30N 40°41' E 014°16'2 0.5
2017-Nov-16 13:08N 40°43' E 014°16'324.9
2017-Nov-16 13:00N 40°39' E 014°15'5 1.1
2017-Nov-16 08:38N 40°44' E 014°16'425.2
2017-Nov-16 08:30N 40°40' E 014°15'3 4.0
2017-Nov-16 07:44N 40°37' E 014°16'0 0.0
2017-Nov-15 18:49N 40°37' E 014°16'5 4.4
2017-Nov-15 17:35N 40°43' E 014°16'225.5
2017-Nov-15 17:30N 40°41' E 014°16'4 2.6
2017-Nov-15 16:08N 40°37' E 014°15'7 2.3
2017-Nov-15 13:07N 40°44' E 014°16'326.6
2017-Nov-15 13:00N 40°41' E 014°16'4 4.8
2017-Nov-15 12:16N 40°37' E 014°16'6 1.5
2017-Nov-15 08:35N 40°43' E 014°17'226.8
2017-Nov-15 08:30N 40°41' E 014°17'3 3.9
2017-Nov-15 07:41N 40°38' E 014°17'5 0.4
2017-Nov-14 17:34N 40°43' E 014°17'226.4
2017-Nov-14 17:31N 40°41' E 014°17'3 0.6
2017-Nov-14 13:09N 40°44' E 014°17'425.5
2017-Nov-14 13:00N 40°40' E 014°17'2 3.1
2017-Nov-14 12:13N 40°38' E 014°19'5 1.3
2017-Nov-14 08:39N 40°43' E 014°18'424.1
2017-Nov-14 08:30N 40°39' E 014°17'2 2.0
2017-Nov-14 07:42N 40°38' E 014°18'6 0.1
2017-Nov-12 08:37N 40°44' E 014°16'427.3
2017-Nov-12 08:29N 40°40' E 014°16'3 3.5
2017-Nov-12 07:41N 40°38' E 014°16'7 5.1
2017-Nov-12 06:19N 40°45' E 014°16'7 0.6
2017-Nov-11 18:47N 40°37' E 014°15'5 4.1
2017-Nov-11 17:32N 40°42' E 014°16'125.8
2017-Nov-11 17:30N 40°42' E 014°16'4 3.0
2017-Nov-11 16:03N 40°37' E 014°16'127.5
2017-Nov-11 16:00N 40°39' E 014°16'6 2.1
2017-Nov-11 13:09N 40°45' E 014°17'425.6
2017-Nov-11 13:00N 40°41' E 014°16'3 4.3
2017-Nov-11 12:16N 40°38' E 014°16'7 1.9
2017-Nov-11 08:40N 40°44' E 014°16'425.0
2017-Nov-11 08:30N 40°40' E 014°16'2 2.8
2017-Nov-11 07:39N 40°38' E 014°17'1 0.1
2017-Nov-10 18:48N 40°38' E 014°18'6 5.5
2017-Nov-10 17:39N 40°44' E 014°17'425.3
2017-Nov-10 17:30N 40°41' E 014°16'1 0.8
2017-Nov-10 16:04N 40°40' E 014°17'2 0.8
2017-Nov-10 13:03N 40°42' E 014°17'127.6
2017-Nov-10 13:00N 40°41' E 014°17'3 4.4
2017-Nov-10 12:14N 40°37' E 014°16'5 1.5
2017-Nov-10 08:40N 40°43' E 014°17'316.1
2017-Nov-10 08:30N 40°40' E 014°17'3 0.2
2017-Nov-09 18:50N 40°37' E 014°16'  

Dump ship's entire track history